sensor_id;sensor_type;location;lat;lon;timestamp;P1;durP1;ratioP1;P2;durP2;ratioP2
37777;SDS011;23615;51.506;7.678;2023-10-08T00:02:08;3.38;;;2.55;;
37777;SDS011;23615;51.506;7.678;2023-10-08T00:04:34;5.13;;;2.38;;
37777;SDS011;23615;51.506;7.678;2023-10-08T00:07:02;4.97;;;2.40;;
37777;SDS011;23615;51.506;7.678;2023-10-08T00:09:32;5.38;;;2.22;;
37777;SDS011;23615;51.506;7.678;2023-10-08T00:12:00;6.10;;;2.35;;
37777;SDS011;23615;51.506;7.678;2023-10-08T00:14:26;4.90;;;2.00;;
37777;SDS011;23615;51.506;7.678;2023-10-08T00:16:53;5.35;;;2.42;;
37777;SDS011;23615;51.506;7.678;2023-10-08T00:19:18;4.60;;;2.27;;
37777;SDS011;23615;51.506;7.678;2023-10-08T00:21:43;5.23;;;2.53;;
37777;SDS011;23615;51.506;7.678;2023-10-08T00:24:10;6.28;;;2.58;;
37777;SDS011;23615;51.506;7.678;2023-10-08T00:26:39;5.55;;;2.47;;
37777;SDS011;23615;51.506;7.678;2023-10-08T00:29:08;4.65;;;2.60;;
37777;SDS011;23615;51.506;7.678;2023-10-08T00:31:47;6.70;;;2.75;;
37777;SDS011;23615;51.506;7.678;2023-10-08T00:34:14;7.67;;;3.03;;
37777;SDS011;23615;51.506;7.678;2023-10-08T00:36:40;5.00;;;2.70;;
37777;SDS011;23615;51.506;7.678;2023-10-08T00:39:07;5.55;;;2.75;;
37777;SDS011;23615;51.506;7.678;2023-10-08T00:41:38;7.35;;;2.17;;
37777;SDS011;23615;51.506;7.678;2023-10-08T00:44:06;5.17;;;2.47;;
37777;SDS011;23615;51.506;7.678;2023-10-08T00:46:32;5.93;;;3.20;;
37777;SDS011;23615;51.506;7.678;2023-10-08T00:49:02;4.90;;;2.28;;
37777;SDS011;23615;51.506;7.678;2023-10-08T00:51:46;7.10;;;3.00;;
37777;SDS011;23615;51.506;7.678;2023-10-08T00:54:24;5.10;;;2.50;;
37777;SDS011;23615;51.506;7.678;2023-10-08T00:56:50;6.28;;;2.75;;
37777;SDS011;23615;51.506;7.678;2023-10-08T00:59:21;5.97;;;2.55;;
37777;SDS011;23615;51.506;7.678;2023-10-08T01:01:48;6.43;;;2.38;;
37777;SDS011;23615;51.506;7.678;2023-10-08T01:04:29;4.10;;;1.98;;
37777;SDS011;23615;51.506;7.678;2023-10-08T01:06:59;4.90;;;2.63;;
37777;SDS011;23615;51.506;7.678;2023-10-08T01:09:37;6.03;;;2.70;;
37777;SDS011;23615;51.506;7.678;2023-10-08T01:12:11;5.05;;;2.40;;
37777;SDS011;23615;51.506;7.678;2023-10-08T01:14:42;4.88;;;2.63;;
37777;SDS011;23615;51.506;7.678;2023-10-08T01:17:10;4.57;;;2.38;;
37777;SDS011;23615;51.506;7.678;2023-10-08T01:19:40;6.68;;;2.75;;
37777;SDS011;23615;51.506;7.678;2023-10-08T01:22:10;6.40;;;2.50;;
37777;SDS011;23615;51.506;7.678;2023-10-08T01:24:42;5.28;;;2.50;;
37777;SDS011;23615;51.506;7.678;2023-10-08T01:27:08;5.88;;;2.35;;
37777;SDS011;23615;51.506;7.678;2023-10-08T01:29:36;5.95;;;2.65;;
37777;SDS011;23615;51.506;7.678;2023-10-08T01:32:02;4.87;;;2.37;;
37777;SDS011;23615;51.506;7.678;2023-10-08T01:34:28;6.97;;;2.53;;
37777;SDS011;23615;51.506;7.678;2023-10-08T01:36:56;6.60;;;2.70;;
37777;SDS011;23615;51.506;7.678;2023-10-08T01:39:27;5.78;;;2.80;;
37777;SDS011;23615;51.506;7.678;2023-10-08T01:41:52;5.00;;;2.30;;
37777;SDS011;23615;51.506;7.678;2023-10-08T01:44:17;5.60;;;2.70;;
37777;SDS011;23615;51.506;7.678;2023-10-08T01:46:42;5.22;;;2.13;;
37777;SDS011;23615;51.506;7.678;2023-10-08T01:49:08;5.93;;;2.37;;
37777;SDS011;23615;51.506;7.678;2023-10-08T01:51:38;4.90;;;2.92;;
37777;SDS011;23615;51.506;7.678;2023-10-08T01:54:09;6.82;;;2.25;;
37777;SDS011;23615;51.506;7.678;2023-10-08T01:56:39;5.10;;;2.38;;
37777;SDS011;23615;51.506;7.678;2023-10-08T01:59:06;7.32;;;2.63;;
37777;SDS011;23615;51.506;7.678;2023-10-08T02:01:36;5.60;;;2.92;;
37777;SDS011;23615;51.506;7.678;2023-10-08T02:04:03;6.07;;;2.53;;
37777;SDS011;23615;51.506;7.678;2023-10-08T02:06:29;5.82;;;2.15;;
37777;SDS011;23615;51.506;7.678;2023-10-08T02:08:56;4.27;;;1.90;;
37777;SDS011;23615;51.506;7.678;2023-10-08T02:11:21;6.20;;;3.20;;
37777;SDS011;23615;51.506;7.678;2023-10-08T02:13:46;6.00;;;2.73;;
37777;SDS011;23615;51.506;7.678;2023-10-08T02:16:14;6.80;;;2.70;;
37777;SDS011;23615;51.506;7.678;2023-10-08T02:18:43;4.85;;;2.70;;
37777;SDS011;23615;51.506;7.678;2023-10-08T02:21:09;7.05;;;2.80;;
37777;SDS011;23615;51.506;7.678;2023-10-08T02:23:35;7.15;;;3.60;;
37777;SDS011;23615;51.506;7.678;2023-10-08T02:26:01;3.05;;;2.53;;
37777;SDS011;23615;51.506;7.678;2023-10-08T02:28:26;7.20;;;3.33;;
37777;SDS011;23615;51.506;7.678;2023-10-08T02:30:51;6.00;;;2.60;;
37777;SDS011;23615;51.506;7.678;2023-10-08T02:33:17;5.57;;;2.90;;
37777;SDS011;23615;51.506;7.678;2023-10-08T02:35:43;7.27;;;2.80;;
37777;SDS011;23615;51.506;7.678;2023-10-08T02:38:10;6.20;;;2.42;;
37777;SDS011;23615;51.506;7.678;2023-10-08T02:40:41;6.07;;;3.13;;
37777;SDS011;23615;51.506;7.678;2023-10-08T02:43:11;8.30;;;2.92;;
37777;SDS011;23615;51.506;7.678;2023-10-08T02:45:40;7.93;;;3.10;;
37777;SDS011;23615;51.506;7.678;2023-10-08T02:48:06;6.07;;;2.90;;
37777;SDS011;23615;51.506;7.678;2023-10-08T02:50:37;7.22;;;3.13;;
37777;SDS011;23615;51.506;7.678;2023-10-08T02:53:04;7.30;;;3.35;;
37777;SDS011;23615;51.506;7.678;2023-10-08T02:55:35;5.55;;;2.92;;
37777;SDS011;23615;51.506;7.678;2023-10-08T02:58:04;5.27;;;2.77;;
37777;SDS011;23615;51.506;7.678;2023-10-08T03:00:30;8.63;;;3.30;;
37777;SDS011;23615;51.506;7.678;2023-10-08T03:02:58;8.23;;;3.28;;
37777;SDS011;23615;51.506;7.678;2023-10-08T03:05:26;4.97;;;2.80;;
37777;SDS011;23615;51.506;7.678;2023-10-08T03:07:56;7.87;;;3.27;;
37777;SDS011;23615;51.506;7.678;2023-10-08T03:10:23;5.97;;;2.72;;
37777;SDS011;23615;51.506;7.678;2023-10-08T03:12:56;5.50;;;2.83;;
37777;SDS011;23615;51.506;7.678;2023-10-08T03:15:28;7.05;;;3.10;;
37777;SDS011;23615;51.506;7.678;2023-10-08T03:17:54;7.60;;;2.83;;
37777;SDS011;23615;51.506;7.678;2023-10-08T03:20:22;7.28;;;3.22;;
37777;SDS011;23615;51.506;7.678;2023-10-08T03:23:02;5.23;;;3.10;;
37777;SDS011;23615;51.506;7.678;2023-10-08T03:25:37;7.63;;;3.15;;
37777;SDS011;23615;51.506;7.678;2023-10-08T03:28:07;6.55;;;3.40;;
37777;SDS011;23615;51.506;7.678;2023-10-08T03:30:34;7.22;;;3.20;;
37777;SDS011;23615;51.506;7.678;2023-10-08T03:33:12;9.05;;;3.38;;
37777;SDS011;23615;51.506;7.678;2023-10-08T03:35:46;5.00;;;3.17;;
37777;SDS011;23615;51.506;7.678;2023-10-08T03:38:12;7.63;;;3.20;;
37777;SDS011;23615;51.506;7.678;2023-10-08T03:40:46;6.75;;;3.17;;
37777;SDS011;23615;51.506;7.678;2023-10-08T03:43:13;9.07;;;3.40;;
37777;SDS011;23615;51.506;7.678;2023-10-08T03:45:58;6.27;;;3.47;;
37777;SDS011;23615;51.506;7.678;2023-10-08T03:48:24;8.25;;;3.90;;
37777;SDS011;23615;51.506;7.678;2023-10-08T03:50:50;8.33;;;3.47;;
37777;SDS011;23615;51.506;7.678;2023-10-08T03:53:31;6.90;;;3.28;;
37777;SDS011;23615;51.506;7.678;2023-10-08T03:55:59;7.45;;;3.50;;
37777;SDS011;23615;51.506;7.678;2023-10-08T03:58:30;9.03;;;3.57;;
37777;SDS011;23615;51.506;7.678;2023-10-08T04:00:57;8.45;;;3.45;;
37777;SDS011;23615;51.506;7.678;2023-10-08T04:03:33;6.70;;;3.30;;
37777;SDS011;23615;51.506;7.678;2023-10-08T04:06:19;8.48;;;3.47;;
37777;SDS011;23615;51.506;7.678;2023-10-08T04:08:48;7.07;;;3.35;;
37777;SDS011;23615;51.506;7.678;2023-10-08T04:11:32;10.73;;;4.18;;
37777;SDS011;23615;51.506;7.678;2023-10-08T04:14:03;8.98;;;4.15;;
37777;SDS011;23615;51.506;7.678;2023-10-08T04:16:30;8.85;;;4.15;;
37777;SDS011;23615;51.506;7.678;2023-10-08T04:18:56;10.88;;;4.75;;
37777;SDS011;23615;51.506;7.678;2023-10-08T04:21:22;7.97;;;3.57;;
37777;SDS011;23615;51.506;7.678;2023-10-08T04:23:52;10.35;;;4.25;;
37777;SDS011;23615;51.506;7.678;2023-10-08T04:26:18;8.65;;;3.67;;
37777;SDS011;23615;51.506;7.678;2023-10-08T04:28:48;8.68;;;3.33;;
37777;SDS011;23615;51.506;7.678;2023-10-08T04:31:22;8.65;;;3.85;;
37777;SDS011;23615;51.506;7.678;2023-10-08T04:34:11;7.18;;;3.80;;
37777;SDS011;23615;51.506;7.678;2023-10-08T04:36:42;6.47;;;3.63;;
37777;SDS011;23615;51.506;7.678;2023-10-08T04:39:10;8.00;;;3.30;;
37777;SDS011;23615;51.506;7.678;2023-10-08T04:41:42;10.73;;;4.32;;
37777;SDS011;23615;51.506;7.678;2023-10-08T04:44:08;8.52;;;3.72;;
37777;SDS011;23615;51.506;7.678;2023-10-08T04:46:40;10.63;;;4.17;;
37777;SDS011;23615;51.506;7.678;2023-10-08T04:49:13;8.03;;;3.87;;
37777;SDS011;23615;51.506;7.678;2023-10-08T04:51:58;9.60;;;4.53;;
37777;SDS011;23615;51.506;7.678;2023-10-08T04:54:25;8.75;;;4.15;;
37777;SDS011;23615;51.506;7.678;2023-10-08T04:56:57;8.40;;;3.35;;
37777;SDS011;23615;51.506;7.678;2023-10-08T04:59:29;11.38;;;3.85;;
37777;SDS011;23615;51.506;7.678;2023-10-08T05:01:58;9.38;;;3.70;;
37777;SDS011;23615;51.506;7.678;2023-10-08T05:04:47;7.03;;;3.53;;
37777;SDS011;23615;51.506;7.678;2023-10-08T05:07:16;8.65;;;3.45;;
37777;SDS011;23615;51.506;7.678;2023-10-08T05:10:04;8.05;;;3.63;;
37777;SDS011;23615;51.506;7.678;2023-10-08T05:12:32;10.13;;;4.00;;
37777;SDS011;23615;51.506;7.678;2023-10-08T05:14:58;8.63;;;3.75;;
37777;SDS011;23615;51.506;7.678;2023-10-08T05:17:45;7.80;;;3.63;;
37777;SDS011;23615;51.506;7.678;2023-10-08T05:20:32;11.02;;;4.10;;
37777;SDS011;23615;51.506;7.678;2023-10-08T05:23:15;8.13;;;3.97;;
37777;SDS011;23615;51.506;7.678;2023-10-08T05:25:55;6.88;;;3.38;;
37777;SDS011;23615;51.506;7.678;2023-10-08T05:28:30;9.10;;;4.60;;
37777;SDS011;23615;51.506;7.678;2023-10-08T05:30:56;7.45;;;3.70;;
37777;SDS011;23615;51.506;7.678;2023-10-08T05:33:40;7.88;;;3.80;;
37777;SDS011;23615;51.506;7.678;2023-10-08T05:36:29;10.00;;;3.78;;
37777;SDS011;23615;51.506;7.678;2023-10-08T05:39:13;9.10;;;3.92;;
37777;SDS011;23615;51.506;7.678;2023-10-08T05:41:55;6.30;;;3.58;;
37777;SDS011;23615;51.506;7.678;2023-10-08T05:44:38;6.72;;;3.08;;
37777;SDS011;23615;51.506;7.678;2023-10-08T05:47:10;7.93;;;3.20;;
37777;SDS011;23615;51.506;7.678;2023-10-08T05:50:01;5.60;;;3.37;;
37777;SDS011;23615;51.506;7.678;2023-10-08T05:52:43;10.75;;;4.05;;
37777;SDS011;23615;51.506;7.678;2023-10-08T05:55:35;7.90;;;3.23;;
37777;SDS011;23615;51.506;7.678;2023-10-08T05:58:12;6.25;;;3.15;;
37777;SDS011;23615;51.506;7.678;2023-10-08T06:00:44;7.03;;;3.00;;
37777;SDS011;23615;51.506;7.678;2023-10-08T06:03:29;6.22;;;3.03;;
37777;SDS011;23615;51.506;7.678;2023-10-08T06:06:04;10.90;;;3.85;;
37777;SDS011;23615;51.506;7.678;2023-10-08T06:08:36;8.32;;;4.18;;
37777;SDS011;23615;51.506;7.678;2023-10-08T06:11:18;5.90;;;2.92;;
37777;SDS011;23615;51.506;7.678;2023-10-08T06:14:02;8.70;;;3.30;;
37777;SDS011;23615;51.506;7.678;2023-10-08T06:16:38;5.50;;;2.42;;
37777;SDS011;23615;51.506;7.678;2023-10-08T06:19:15;7.15;;;3.33;;
37777;SDS011;23615;51.506;7.678;2023-10-08T06:21:40;7.53;;;3.85;;
37777;SDS011;23615;51.506;7.678;2023-10-08T06:24:07;8.23;;;4.15;;
37777;SDS011;23615;51.506;7.678;2023-10-08T06:26:39;5.72;;;2.90;;
37777;SDS011;23615;51.506;7.678;2023-10-08T06:29:11;2.30;;;1.50;;
37777;SDS011;23615;51.506;7.678;2023-10-08T06:31:45;3.70;;;1.58;;
37777;SDS011;23615;51.506;7.678;2023-10-08T06:34:16;2.55;;;1.45;;
37777;SDS011;23615;51.506;7.678;2023-10-08T06:36:42;1.48;;;1.30;;
37777;SDS011;23615;51.506;7.678;2023-10-08T06:39:07;1.83;;;0.97;;
37777;SDS011;23615;51.506;7.678;2023-10-08T06:41:43;1.02;;;0.70;;
37777;SDS011;23615;51.506;7.678;2023-10-08T06:44:08;1.23;;;0.33;;
37777;SDS011;23615;51.506;7.678;2023-10-08T06:46:39;0.35;;;0.10;;
37777;SDS011;23615;51.506;7.678;2023-10-08T06:49:06;0.17;;;0.10;;
37777;SDS011;23615;51.506;7.678;2023-10-08T06:51:36;0.50;;;0.10;;
37777;SDS011;23615;51.506;7.678;2023-10-08T06:54:02;1.10;;;0.10;;
37777;SDS011;23615;51.506;7.678;2023-10-08T06:56:28;0.10;;;0.10;;
37777;SDS011;23615;51.506;7.678;2023-10-08T06:58:56;0.70;;;0.10;;
37777;SDS011;23615;51.506;7.678;2023-10-08T07:01:23;0.50;;;0.00;;
37777;SDS011;23615;51.506;7.678;2023-10-08T07:04:03;0.50;;;0.10;;
37777;SDS011;23615;51.506;7.678;2023-10-08T07:06:36;0.20;;;0.20;;
37777;SDS011;23615;51.506;7.678;2023-10-08T07:09:02;0.70;;;0.50;;
37777;SDS011;23615;51.506;7.678;2023-10-08T07:11:32;1.00;;;0.90;;
37777;SDS011;23615;51.506;7.678;2023-10-08T07:14:03;2.03;;;1.57;;
37777;SDS011;23615;51.506;7.678;2023-10-08T07:16:32;2.78;;;2.40;;
37777;SDS011;23615;51.506;7.678;2023-10-08T07:18:57;3.53;;;2.90;;
37777;SDS011;23615;51.506;7.678;2023-10-08T07:21:28;7.33;;;4.60;;
37777;SDS011;23615;51.506;7.678;2023-10-08T07:23:54;5.30;;;3.83;;
37777;SDS011;23615;51.506;7.678;2023-10-08T07:26:29;5.50;;;3.90;;
37777;SDS011;23615;51.506;7.678;2023-10-08T07:29:01;5.10;;;3.70;;
37777;SDS011;23615;51.506;7.678;2023-10-08T07:31:33;4.82;;;3.13;;
37777;SDS011;23615;51.506;7.678;2023-10-08T07:33:59;4.60;;;1.80;;
37777;SDS011;23615;51.506;7.678;2023-10-08T07:36:41;2.00;;;1.17;;
37777;SDS011;23615;51.506;7.678;2023-10-08T07:39:08;2.10;;;0.80;;
37777;SDS011;23615;51.506;7.678;2023-10-08T07:41:45;0.80;;;0.40;;
37777;SDS011;23615;51.506;7.678;2023-10-08T07:44:12;0.40;;;0.23;;
37777;SDS011;23615;51.506;7.678;2023-10-08T07:46:37;1.00;;;0.40;;
37777;SDS011;23615;51.506;7.678;2023-10-08T07:49:02;0.70;;;0.10;;
37777;SDS011;23615;51.506;7.678;2023-10-08T07:51:29;0.22;;;0.20;;
37777;SDS011;23615;51.506;7.678;2023-10-08T07:53:54;0.10;;;0.10;;
37777;SDS011;23615;51.506;7.678;2023-10-08T07:56:21;0.10;;;0.10;;
37777;SDS011;23615;51.506;7.678;2023-10-08T07:58:50;0.10;;;0.10;;
37777;SDS011;23615;51.506;7.678;2023-10-08T08:01:16;0.60;;;0.10;;
37777;SDS011;23615;51.506;7.678;2023-10-08T08:03:41;0.10;;;0.10;;
37777;SDS011;23615;51.506;7.678;2023-10-08T08:06:08;0.00;;;0.00;;
37777;SDS011;23615;51.506;7.678;2023-10-08T08:08:38;0.00;;;0.00;;
37777;SDS011;23615;51.506;7.678;2023-10-08T08:11:08;0.30;;;0.00;;
37777;SDS011;23615;51.506;7.678;2023-10-08T08:13:42;0.10;;;0.00;;
37777;SDS011;23615;51.506;7.678;2023-10-08T08:16:10;0.00;;;0.00;;
37777;SDS011;23615;51.506;7.678;2023-10-08T08:18:44;0.30;;;0.00;;
37777;SDS011;23615;51.506;7.678;2023-10-08T08:21:11;0.40;;;0.00;;
37777;SDS011;23615;51.506;7.678;2023-10-08T08:23:41;0.50;;;0.00;;
37777;SDS011;23615;51.506;7.678;2023-10-08T08:26:12;0.45;;;0.00;;
37777;SDS011;23615;51.506;7.678;2023-10-08T08:29:04;0.30;;;0.00;;
37777;SDS011;23615;51.506;7.678;2023-10-08T08:31:33;1.08;;;0.00;;
37777;SDS011;23615;51.506;7.678;2023-10-08T08:34:00;0.52;;;0.03;;
37777;SDS011;23615;51.506;7.678;2023-10-08T08:36:28;0.20;;;0.00;;
37777;SDS011;23615;51.506;7.678;2023-10-08T08:38:57;0.30;;;0.10;;
37777;SDS011;23615;51.506;7.678;2023-10-08T08:41:22;0.30;;;0.10;;
37777;SDS011;23615;51.506;7.678;2023-10-08T08:43:49;0.05;;;0.00;;
37777;SDS011;23615;51.506;7.678;2023-10-08T08:46:33;0.10;;;0.10;;
37777;SDS011;23615;51.506;7.678;2023-10-08T08:49:06;1.58;;;0.20;;
37777;SDS011;23615;51.506;7.678;2023-10-08T08:51:33;0.20;;;0.10;;
37777;SDS011;23615;51.506;7.678;2023-10-08T08:54:02;1.50;;;0.20;;
37777;SDS011;23615;51.506;7.678;2023-10-08T08:56:32;0.75;;;0.15;;
37777;SDS011;23615;51.506;7.678;2023-10-08T08:58:58;0.40;;;0.00;;
37777;SDS011;23615;51.506;7.678;2023-10-08T09:01:24;1.50;;;0.00;;
37777;SDS011;23615;51.506;7.678;2023-10-08T09:03:50;0.55;;;0.00;;
37777;SDS011;23615;51.506;7.678;2023-10-08T09:06:15;0.60;;;0.17;;
37777;SDS011;23615;51.506;7.678;2023-10-08T09:08:41;1.57;;;0.20;;
37777;SDS011;23615;51.506;7.678;2023-10-08T09:11:07;0.95;;;0.20;;
37777;SDS011;23615;51.506;7.678;2023-10-08T09:13:33;0.57;;;0.00;;
37777;SDS011;23615;51.506;7.678;2023-10-08T09:16:07;0.80;;;0.10;;
37777;SDS011;23615;51.506;7.678;2023-10-08T09:18:36;0.90;;;0.20;;
37777;SDS011;23615;51.506;7.678;2023-10-08T09:21:11;0.10;;;0.07;;
37777;SDS011;23615;51.506;7.678;2023-10-08T09:23:49;1.50;;;0.10;;
37777;SDS011;23615;51.506;7.678;2023-10-08T09:26:18;1.92;;;0.30;;
37777;SDS011;23615;51.506;7.678;2023-10-08T09:28:47;2.50;;;0.10;;
37777;SDS011;23615;51.506;7.678;2023-10-08T09:31:13;0.98;;;0.10;;
37777;SDS011;23615;51.506;7.678;2023-10-08T09:33:39;1.27;;;0.30;;
37777;SDS011;23615;51.506;7.678;2023-10-08T09:36:05;1.10;;;0.10;;
37777;SDS011;23615;51.506;7.678;2023-10-08T09:38:36;2.17;;;0.10;;
37777;SDS011;23615;51.506;7.678;2023-10-08T09:41:02;1.70;;;0.20;;
37777;SDS011;23615;51.506;7.678;2023-10-08T09:43:28;0.70;;;0.10;;
37777;SDS011;23615;51.506;7.678;2023-10-08T09:46:04;1.77;;;0.20;;
37777;SDS011;23615;51.506;7.678;2023-10-08T09:48:37;1.83;;;0.17;;
37777;SDS011;23615;51.506;7.678;2023-10-08T09:51:06;1.25;;;0.20;;
37777;SDS011;23615;51.506;7.678;2023-10-08T09:53:47;0.60;;;0.10;;
37777;SDS011;23615;51.506;7.678;2023-10-08T09:56:19;0.13;;;0.10;;
37777;SDS011;23615;51.506;7.678;2023-10-08T09:58:45;1.03;;;0.10;;
37777;SDS011;23615;51.506;7.678;2023-10-08T10:01:14;3.10;;;0.40;;
37777;SDS011;23615;51.506;7.678;2023-10-08T10:03:41;1.58;;;0.20;;
37777;SDS011;23615;51.506;7.678;2023-10-08T10:06:11;1.42;;;0.10;;
37777;SDS011;23615;51.506;7.678;2023-10-08T10:08:41;1.00;;;0.13;;
37777;SDS011;23615;51.506;7.678;2023-10-08T10:11:07;0.40;;;0.13;;
37777;SDS011;23615;51.506;7.678;2023-10-08T10:13:34;1.47;;;0.13;;
37777;SDS011;23615;51.506;7.678;2023-10-08T10:16:04;2.33;;;0.20;;
37777;SDS011;23615;51.506;7.678;2023-10-08T10:18:32;1.60;;;0.10;;
37777;SDS011;23615;51.506;7.678;2023-10-08T10:20:59;0.55;;;0.10;;
37777;SDS011;23615;51.506;7.678;2023-10-08T10:26:29;0.93;;;0.10;;
37777;SDS011;23615;51.506;7.678;2023-10-08T10:31:34;0.60;;;0.10;;
37777;SDS011;23615;51.506;7.678;2023-10-08T10:34:03;0.87;;;0.20;;
37777;SDS011;23615;51.506;7.678;2023-10-08T10:36:34;0.25;;;0.20;;
37777;SDS011;23615;51.506;7.678;2023-10-08T10:38:59;1.92;;;0.30;;
37777;SDS011;23615;51.506;7.678;2023-10-08T10:41:25;0.73;;;0.10;;
37777;SDS011;23615;51.506;7.678;2023-10-08T10:43:52;1.10;;;0.10;;
37777;SDS011;23615;51.506;7.678;2023-10-08T10:46:18;1.60;;;0.35;;
37777;SDS011;23615;51.506;7.678;2023-10-08T10:48:55;0.57;;;0.10;;
37777;SDS011;23615;51.506;7.678;2023-10-08T10:51:44;0.50;;;0.10;;
37777;SDS011;23615;51.506;7.678;2023-10-08T10:54:12;0.43;;;0.10;;
37777;SDS011;23615;51.506;7.678;2023-10-08T10:56:46;0.80;;;0.20;;
37777;SDS011;23615;51.506;7.678;2023-10-08T10:59:12;0.82;;;0.10;;
37777;SDS011;23615;51.506;7.678;2023-10-08T11:01:48;1.33;;;0.10;;
37777;SDS011;23615;51.506;7.678;2023-10-08T11:04:32;0.30;;;0.10;;
37777;SDS011;23615;51.506;7.678;2023-10-08T11:06:58;0.55;;;0.13;;
37777;SDS011;23615;51.506;7.678;2023-10-08T11:09:25;0.20;;;0.10;;
37777;SDS011;23615;51.506;7.678;2023-10-08T11:12:12;0.90;;;0.10;;
37777;SDS011;23615;51.506;7.678;2023-10-08T11:14:43;0.70;;;0.00;;
37777;SDS011;23615;51.506;7.678;2023-10-08T11:17:11;1.80;;;0.20;;
37777;SDS011;23615;51.506;7.678;2023-10-08T11:19:39;1.00;;;0.10;;
37777;SDS011;23615;51.506;7.678;2023-10-08T11:22:07;0.30;;;0.10;;
37777;SDS011;23615;51.506;7.678;2023-10-08T11:24:40;0.40;;;0.10;;
37777;SDS011;23615;51.506;7.678;2023-10-08T11:27:07;1.20;;;0.20;;
37777;SDS011;23615;51.506;7.678;2023-10-08T11:29:46;0.40;;;0.20;;
37777;SDS011;23615;51.506;7.678;2023-10-08T11:32:13;0.08;;;0.08;;
37777;SDS011;23615;51.506;7.678;2023-10-08T11:34:42;0.45;;;0.20;;
37777;SDS011;23615;51.506;7.678;2023-10-08T11:37:14;0.20;;;0.00;;
37777;SDS011;23615;51.506;7.678;2023-10-08T11:39:46;0.60;;;0.10;;
37777;SDS011;23615;51.506;7.678;2023-10-08T11:42:12;0.30;;;0.10;;
37777;SDS011;23615;51.506;7.678;2023-10-08T11:45:05;0.38;;;0.10;;
37777;SDS011;23615;51.506;7.678;2023-10-08T11:47:46;0.10;;;0.10;;
37777;SDS011;23615;51.506;7.678;2023-10-08T11:50:14;0.47;;;0.03;;
37777;SDS011;23615;51.506;7.678;2023-10-08T11:52:44;1.40;;;0.10;;
37777;SDS011;23615;51.506;7.678;2023-10-08T11:55:14;0.30;;;0.10;;
37777;SDS011;23615;51.506;7.678;2023-10-08T11:57:46;0.70;;;0.00;;
37777;SDS011;23615;51.506;7.678;2023-10-08T12:00:14;0.28;;;0.00;;
37777;SDS011;23615;51.506;7.678;2023-10-08T12:02:48;0.40;;;0.00;;
37777;SDS011;23615;51.506;7.678;2023-10-08T12:05:14;0.40;;;0.10;;
37777;SDS011;23615;51.506;7.678;2023-10-08T12:07:48;0.70;;;0.10;;
37777;SDS011;23615;51.506;7.678;2023-10-08T12:10:16;0.20;;;0.00;;
37777;SDS011;23615;51.506;7.678;2023-10-08T12:12:46;0.00;;;0.00;;
37777;SDS011;23615;51.506;7.678;2023-10-08T12:15:13;0.30;;;0.10;;
37777;SDS011;23615;51.506;7.678;2023-10-08T12:17:44;0.10;;;0.00;;
37777;SDS011;23615;51.506;7.678;2023-10-08T12:20:18;0.50;;;0.00;;
37777;SDS011;23615;51.506;7.678;2023-10-08T12:22:51;0.03;;;0.03;;
37777;SDS011;23615;51.506;7.678;2023-10-08T12:25:16;0.40;;;0.10;;
37777;SDS011;23615;51.506;7.678;2023-10-08T12:27:42;0.40;;;0.10;;
37777;SDS011;23615;51.506;7.678;2023-10-08T12:30:08;0.40;;;0.00;;
37777;SDS011;23615;51.506;7.678;2023-10-08T12:32:36;0.60;;;0.10;;
37777;SDS011;23615;51.506;7.678;2023-10-08T12:35:07;0.32;;;0.10;;
37777;SDS011;23615;51.506;7.678;2023-10-08T12:37:39;1.50;;;0.15;;
37777;SDS011;23615;51.506;7.678;2023-10-08T12:40:05;1.80;;;0.20;;
37777;SDS011;23615;51.506;7.678;2023-10-08T12:42:47;1.30;;;0.30;;
37777;SDS011;23615;51.506;7.678;2023-10-08T12:45:13;1.58;;;0.40;;
37777;SDS011;23615;51.506;7.678;2023-10-08T12:47:38;2.00;;;0.20;;
37777;SDS011;23615;51.506;7.678;2023-10-08T12:50:04;0.67;;;0.17;;
37777;SDS011;23615;51.506;7.678;2023-10-08T12:52:32;2.42;;;0.40;;
37777;SDS011;23615;51.506;7.678;2023-10-08T12:55:00;0.70;;;0.30;;
37777;SDS011;23615;51.506;7.678;2023-10-08T12:57:29;0.77;;;0.30;;
37777;SDS011;23615;51.506;7.678;2023-10-08T12:59:58;1.25;;;0.40;;
37777;SDS011;23615;51.506;7.678;2023-10-08T13:02:24;3.87;;;0.50;;
37777;SDS011;23615;51.506;7.678;2023-10-08T13:04:53;0.90;;;0.20;;
37777;SDS011;23615;51.506;7.678;2023-10-08T13:07:20;1.65;;;0.73;;
37777;SDS011;23615;51.506;7.678;2023-10-08T13:09:47;0.63;;;0.30;;
37777;SDS011;23615;51.506;7.678;2023-10-08T13:12:12;1.03;;;0.30;;
37777;SDS011;23615;51.506;7.678;2023-10-08T13:14:40;0.65;;;0.30;;
37777;SDS011;23615;51.506;7.678;2023-10-08T13:17:05;0.80;;;0.20;;
37777;SDS011;23615;51.506;7.678;2023-10-08T13:19:35;1.17;;;0.20;;
37777;SDS011;23615;51.506;7.678;2023-10-08T13:22:01;0.90;;;0.20;;
37777;SDS011;23615;51.506;7.678;2023-10-08T13:24:31;1.45;;;0.40;;
37777;SDS011;23615;51.506;7.678;2023-10-08T13:26:57;0.77;;;0.20;;
37777;SDS011;23615;51.506;7.678;2023-10-08T13:29:23;0.70;;;0.10;;
37777;SDS011;23615;51.506;7.678;2023-10-08T13:31:51;0.40;;;0.10;;
37777;SDS011;23615;51.506;7.678;2023-10-08T13:34:19;0.70;;;0.00;;
37777;SDS011;23615;51.506;7.678;2023-10-08T13:36:44;1.07;;;0.10;;
37777;SDS011;23615;51.506;7.678;2023-10-08T13:39:12;0.70;;;0.08;;
37777;SDS011;23615;51.506;7.678;2023-10-08T13:41:43;0.00;;;0.00;;
37777;SDS011;23615;51.506;7.678;2023-10-08T13:44:12;0.00;;;0.00;;
37777;SDS011;23615;51.506;7.678;2023-10-08T13:46:38;2.30;;;0.08;;
37777;SDS011;23615;51.506;7.678;2023-10-08T13:49:08;0.60;;;0.08;;
37777;SDS011;23615;51.506;7.678;2023-10-08T13:51:35;0.37;;;0.10;;
37777;SDS011;23615;51.506;7.678;2023-10-08T13:54:03;0.30;;;0.10;;
37777;SDS011;23615;51.506;7.678;2023-10-08T13:56:31;0.20;;;0.10;;
37777;SDS011;23615;51.506;7.678;2023-10-08T13:58:58;0.20;;;0.17;;
37777;SDS011;23615;51.506;7.678;2023-10-08T14:01:40;0.30;;;0.10;;
37777;SDS011;23615;51.506;7.678;2023-10-08T14:04:08;0.90;;;0.10;;
37777;SDS011;23615;51.506;7.678;2023-10-08T14:06:34;0.20;;;0.10;;
37777;SDS011;23615;51.506;7.678;2023-10-08T14:09:01;0.80;;;0.20;;
37777;SDS011;23615;51.506;7.678;2023-10-08T14:11:32;0.10;;;0.10;;
37777;SDS011;23615;51.506;7.678;2023-10-08T14:13:58;1.40;;;0.20;;
37777;SDS011;23615;51.506;7.678;2023-10-08T14:16:27;0.10;;;0.10;;
37777;SDS011;23615;51.506;7.678;2023-10-08T14:18:54;0.30;;;0.10;;
37777;SDS011;23615;51.506;7.678;2023-10-08T14:21:20;0.50;;;0.10;;
37777;SDS011;23615;51.506;7.678;2023-10-08T14:23:52;0.30;;;0.15;;
37777;SDS011;23615;51.506;7.678;2023-10-08T14:26:18;0.30;;;0.10;;
37777;SDS011;23615;51.506;7.678;2023-10-08T14:28:46;0.20;;;0.20;;
37777;SDS011;23615;51.506;7.678;2023-10-08T14:31:22;0.30;;;0.20;;
37777;SDS011;23615;51.506;7.678;2023-10-08T14:33:48;0.30;;;0.17;;
37777;SDS011;23615;51.506;7.678;2023-10-08T14:36:34;0.40;;;0.10;;
37777;SDS011;23615;51.506;7.678;2023-10-08T14:39:18;0.70;;;0.10;;
37777;SDS011;23615;51.506;7.678;2023-10-08T14:42:03;0.70;;;0.20;;
37777;SDS011;23615;51.506;7.678;2023-10-08T14:44:47;0.85;;;0.28;;
37777;SDS011;23615;51.506;7.678;2023-10-08T14:47:14;1.50;;;0.30;;
37777;SDS011;23615;51.506;7.678;2023-10-08T14:49:40;0.65;;;0.20;;
37777;SDS011;23615;51.506;7.678;2023-10-08T14:52:07;0.63;;;0.30;;
37777;SDS011;23615;51.506;7.678;2023-10-08T14:54:32;0.60;;;0.20;;
37777;SDS011;23615;51.506;7.678;2023-10-08T14:56:58;0.20;;;0.20;;
37777;SDS011;23615;51.506;7.678;2023-10-08T14:59:23;0.38;;;0.20;;
37777;SDS011;23615;51.506;7.678;2023-10-08T15:01:49;1.08;;;0.30;;
37777;SDS011;23615;51.506;7.678;2023-10-08T15:04:15;1.40;;;0.40;;
37777;SDS011;23615;51.506;7.678;2023-10-08T15:06:41;1.05;;;0.40;;
37777;SDS011;23615;51.506;7.678;2023-10-08T15:09:07;1.10;;;0.43;;
37777;SDS011;23615;51.506;7.678;2023-10-08T15:11:43;1.25;;;0.30;;
37777;SDS011;23615;51.506;7.678;2023-10-08T15:14:11;1.00;;;0.40;;